createdAt,value
2019-04-20T00:00:04.604Z,94692.09
2019-04-20T00:02:35.835Z,94689.59
2019-04-20T00:05:09.396Z,94692.74
2019-04-20T00:07:43.793Z,94686.85
2019-04-20T00:10:20.006Z,94687.17
2019-04-20T00:13:06.811Z,94687.72
2019-04-20T00:15:26.409Z,94688.83
2019-04-20T00:18:03.214Z,94683.02
2019-04-20T00:20:36.894Z,94685.94
2019-04-20T00:23:13.456Z,94677.75
2019-04-20T00:25:54.892Z,94680.97
2019-04-20T00:28:40.835Z,94678.95
2019-04-20T00:31:13.779Z,94679.17
2019-04-20T00:33:45.841Z,94682.30
2019-04-20T00:36:05.357Z,94674.11
2019-04-20T00:38:42.655Z,94677.56
2019-04-20T00:41:17.281Z,94675.30
2019-04-20T00:43:49.385Z,94676.98
2019-04-20T00:46:31.980Z,94670.66
2019-04-20T00:49:06.906Z,94675.74
2019-04-20T00:51:51.156Z,94672.64
2019-04-20T00:54:07.330Z,94672.64
2019-04-20T00:56:41.307Z,94669.69
2019-04-20T00:59:27.578Z,94667.27
2019-04-20T01:02:10.310Z,94661.11
2019-04-20T01:04:50.456Z,94655.06
2019-04-20T01:07:13.673Z,94655.36
2019-04-20T01:09:54.107Z,94658.52
2019-04-20T01:12:30.342Z,94657.23
2019-04-20T01:15:06.331Z,94655.52
2019-04-20T01:17:37.930Z,94659.49
2019-04-20T01:20:12.108Z,94663.38
2019-04-20T01:22:53.823Z,94666.53
2019-04-20T01:25:28.490Z,94658.75
2019-04-20T01:28:14.872Z,94662.38
2019-04-20T01:30:36.173Z,94663.17
2019-04-20T01:33:16.022Z,94662.55
2019-04-20T01:35:53.466Z,94666.02
2019-04-20T01:38:30.588Z,94656.56
2019-04-20T01:40:48.467Z,94663.39
2019-04-20T01:43:22.678Z,94663.58
2019-04-20T01:46:07.577Z,94666.08
2019-04-20T01:48:35.594Z,94664.03
2019-04-20T01:51:11.840Z,94664.79
2019-04-20T01:54:06.986Z,94664.03
2019-04-20T01:56:39.022Z,94667.31
2019-04-20T01:59:23.989Z,94664.50
2019-04-20T02:02:09.627Z,94662.00
2019-04-20T02:04:43.956Z,94664.36
2019-04-20T02:07:19.308Z,94665.58
2019-04-20T02:09:56.437Z,94663.94
2019-04-20T02:12:29.228Z,94665.28
2019-04-20T02:15:02.742Z,94664.00
2019-04-20T02:17:41.836Z,94659.78
2019-04-20T02:20:28.714Z,94658.17
2019-04-20T02:23:00.013Z,94654.69
2019-04-20T02:25:18.647Z,94653.59
2019-04-20T02:28:01.395Z,94651.42
2019-04-20T02:33:42.846Z,94649.70
2019-04-20T02:36:21.226Z,94645.85
2019-04-20T02:39:13.681Z,94645.05
2019-04-20T02:41:39.177Z,94645.57
2019-04-20T02:44:16.016Z,94641.78
2019-04-20T02:46:45.299Z,94637.45
2019-04-20T02:49:19.846Z,94636.70
2019-04-20T02:51:59.878Z,94636.41
2019-04-20T02:54:18.741Z,94635.80
2019-04-20T02:57:07.287Z,94634.23
2019-04-20T02:59:53.360Z,94634.18
2019-04-20T03:01:57.345Z,94637.39
2019-04-20T03:04:20.324Z,94635.04
2019-04-20T03:06:58.341Z,94634.33
2019-04-20T03:09:40.474Z,94640.43
2019-04-20T03:12:21.723Z,94637.55
2019-04-20T03:14:42.294Z,94641.36
2019-04-20T03:17:27.253Z,94647.60
2019-04-20T03:19:51.656Z,94641.55
2019-04-20T03:22:48.344Z,94641.45
2019-04-20T03:25:11.412Z,94636.16
2019-04-20T03:27:45.846Z,94645.95
2019-04-20T03:31:16.257Z,94644.56
2019-04-20T03:33:44.701Z,94642.34
2019-04-20T03:35:51.124Z,94639.91
2019-04-20T03:38:21.703Z,94641.08
2019-04-20T03:40:45.295Z,94636.00
2019-04-20T03:43:07.680Z,94638.92
2019-04-20T03:45:50.649Z,94643.37
2019-04-20T03:48:33.521Z,94644.41
2019-04-20T03:51:22.053Z,94644.60
2019-04-20T03:54:02.779Z,94648.16
2019-04-20T03:56:42.286Z,94649.47
2019-04-20T03:59:36.003Z,94653.07
2019-04-20T04:02:33.173Z,94652.13
2019-04-20T04:05:04.371Z,94650.91
2019-04-20T04:07:30.414Z,94658.44
2019-04-20T04:10:10.871Z,94660.80
2019-04-20T04:12:35.597Z,94668.02
2019-04-20T04:15:04.200Z,94667.64
2019-04-20T04:17:42.300Z,94673.67
2019-04-20T04:20:16.275Z,94680.64
2019-04-20T04:23:06.025Z,94673.22
2019-04-20T04:25:32.555Z,94676.32
2019-04-20T04:28:10.767Z,94680.97
2019-04-20T04:30:49.538Z,94681.31
2019-04-20T04:33:48.954Z,94688.50
2019-04-20T04:35:57.003Z,94687.25
2019-04-20T04:38:38.666Z,94694.28
2019-04-20T04:41:17.079Z,94692.79
2019-04-20T04:43:48.373Z,94693.15
2019-04-20T04:45:59.582Z,94699.94
2019-04-20T04:48:37.049Z,94705.03
2019-04-20T04:51:15.826Z,94699.47
2019-04-20T04:53:52.931Z,94696.79
2019-04-20T04:56:20.146Z,94704.02
2019-04-20T04:58:51.722Z,94710.14
2019-04-20T05:01:28.799Z,94715.08
2019-04-20T05:04:34.780Z,94716.59
2019-04-20T05:06:48.541Z,94710.16
2019-04-20T05:09:12.335Z,94722.70
2019-04-20T05:11:44.730Z,94716.69
2019-04-20T05:14:24.417Z,94717.38
2019-04-20T05:17:07.738Z,94714.79
2019-04-20T05:19:47.476Z,94714.34
2019-04-20T05:22:26.173Z,94716.91
2019-04-20T05:25:02.333Z,94715.02
2019-04-20T05:27:34.881Z,94712.75
2019-04-20T05:29:50.861Z,94718.30
2019-04-20T05:32:35.831Z,94715.71
2019-04-20T05:35:21.553Z,94709.59
2019-04-20T05:38:02.918Z,94709.86
2019-04-20T05:40:26.209Z,94713.47
2019-04-20T05:43:07.929Z,94714.84
2019-04-20T05:45:33.770Z,94715.19
2019-04-20T05:48:11.916Z,94716.07
2019-04-20T05:50:51.873Z,94714.62
2019-04-20T05:53:26.428Z,94717.60
2019-04-20T05:55:54.451Z,94722.66
2019-04-20T05:58:33.983Z,94721.58
2019-04-20T06:01:16.093Z,94713.16
2019-04-20T06:03:42.348Z,94716.78
2019-04-20T06:06:15.172Z,94720.65
2019-04-20T06:08:59.626Z,94719.78
2019-04-20T06:11:28.276Z,94718.96
2019-04-20T06:13:53.749Z,94718.27
2019-04-20T06:16:41.011Z,94723.02
2019-04-20T06:19:24.383Z,94719.42
2019-04-20T06:21:57.562Z,94724.02
2019-04-20T06:24:35.331Z,94723.55
2019-04-20T06:27:03.237Z,94732.19
2019-04-20T06:29:38.060Z,94731.73
2019-04-20T06:32:14.024Z,94733.11
2019-04-20T06:35:05.057Z,94730.48
2019-04-20T06:37:20.736Z,94729.73
2019-04-20T06:39:54.689Z,94726.34
2019-04-20T06:42:34.304Z,94726.86
2019-04-20T06:45:04.542Z,94724.54
2019-04-20T06:47:39.330Z,94728.13
2019-04-20T06:50:16.038Z,94729.06
2019-04-20T06:53:16.405Z,94726.45
2019-04-20T06:55:48.644Z,94728.75
2019-04-20T06:58:33.433Z,94730.73
2019-04-20T07:01:00.832Z,94729.98
2019-04-20T07:03:49.416Z,94732.22
2019-04-20T07:06:23.045Z,94728.02
2019-04-20T07:08:48.808Z,94724.16
2019-04-20T07:11:21.291Z,94725.95
2019-04-20T07:13:36.164Z,94728.70
2019-04-20T07:16:28.255Z,94728.80
2019-04-20T07:19:07.634Z,94731.22
2019-04-20T07:22:07.227Z,94726.00
2019-04-20T07:24:38.563Z,94729.95
2019-04-20T07:27:03.055Z,94726.12
2019-04-20T07:29:41.148Z,94724.25
2019-04-20T07:32:01.536Z,94722.64
2019-04-20T07:34:47.526Z,94722.63
2019-04-20T07:37:51.807Z,94727.59
2019-04-20T07:40:03.487Z,94731.02
2019-04-20T07:42:34.633Z,94728.84
2019-04-20T07:45:07.734Z,94725.70
2019-04-20T07:47:46.591Z,94729.69
2019-04-20T07:50:07.715Z,94724.68
2019-04-20T07:52:38.683Z,94728.85
2019-04-20T07:57:51.121Z,94726.33
2019-04-20T08:00:44.483Z,94725.64
2019-04-20T08:03:23.678Z,94722.00
2019-04-20T08:05:52.700Z,94726.72
2019-04-20T08:08:35.219Z,94730.08
2019-04-20T08:11:07.464Z,94724.74
2019-04-20T08:16:24.312Z,94726.62
2019-04-20T08:18:53.915Z,94729.49
2019-04-20T08:21:32.728Z,94728.72
2019-04-20T08:24:02.613Z,94734.67
2019-04-20T08:26:25.159Z,94730.55
2019-04-20T08:29:01.417Z,94724.22
2019-04-20T08:31:43.469Z,94722.39
2019-04-20T08:34:39.230Z,94721.53
2019-04-20T08:37:00.937Z,94728.42
2019-04-20T08:42:10.510Z,94722.57
2019-04-20T08:47:35.148Z,94719.25
2019-04-20T08:50:03.154Z,94724.64
2019-04-20T08:52:55.467Z,94719.24
2019-04-20T08:55:04.705Z,94721.11
2019-04-20T08:57:22.524Z,94715.73
2019-04-20T08:59:56.053Z,94713.49
2019-04-20T09:02:30.400Z,94707.90
2019-04-20T09:05:09.042Z,94710.31
2019-04-20T09:07:50.304Z,94706.52
2019-04-20T09:10:34.738Z,94710.89
2019-04-20T09:13:02.233Z,94703.23
2019-04-20T09:15:21.649Z,94702.48
2019-04-20T09:18:01.958Z,94699.61
2019-04-20T09:20:46.227Z,94701.84
2019-04-20T09:23:28.640Z,94701.48
2019-04-20T09:26:17.154Z,94699.06
2019-04-20T09:28:31.877Z,94696.16
2019-04-20T09:31:18.129Z,94696.75
2019-04-20T09:33:58.524Z,94695.50
2019-04-20T09:36:42.025Z,94697.13
2019-04-20T09:39:27.159Z,94690.86
2019-04-20T09:42:09.205Z,94684.20
2019-04-20T09:44:46.201Z,94687.23
2019-04-20T09:47:25.897Z,94688.48
2019-04-20T09:50:00.828Z,94685.92
2019-04-20T09:52:39.879Z,94682.32
2019-04-20T09:55:14.938Z,94682.45
2019-04-20T09:57:54.056Z,94679.90
2019-04-20T10:00:25.831Z,94670.02
2019-04-20T10:02:44.688Z,94679.84
2019-04-20T10:05:17.799Z,94667.95
2019-04-20T10:07:55.942Z,94673.36
2019-04-20T10:10:32.323Z,94672.77
2019-04-20T10:13:00.597Z,94666.06
2019-04-20T10:15:35.142Z,94671.09
2019-04-20T10:18:08.396Z,94677.65
2019-04-20T10:20:42.287Z,94675.84
2019-04-20T10:23:16.454Z,94677.86
2019-04-20T10:25:50.924Z,94672.53
2019-04-20T10:28:25.517Z,94669.16
2019-04-20T10:30:58.971Z,94676.61
2019-04-20T10:33:33.442Z,94667.27
2019-04-20T10:36:09.763Z,94664.72
2019-04-20T10:38:42.672Z,94672.03
2019-04-20T10:41:29.760Z,94665.03
2019-04-20T10:43:51.077Z,94662.94
2019-04-20T10:46:25.265Z,94664.95
2019-04-20T10:49:02.809Z,94659.74
2019-04-20T10:51:33.706Z,94654.33
2019-04-20T10:54:06.738Z,94657.75
2019-04-20T10:56:41.395Z,94657.15
2019-04-20T10:59:15.985Z,94653.13
2019-04-20T11:01:49.729Z,94650.34
2019-04-20T11:04:22.974Z,94652.69
2019-04-20T11:06:56.648Z,94652.95
2019-04-20T11:09:30.720Z,94652.93
2019-04-20T11:12:04.202Z,94647.36
2019-04-20T11:14:41.892Z,94643.11
2019-04-20T11:17:12.530Z,94644.50
2019-04-20T11:19:45.446Z,94633.70
2019-04-20T11:22:19.977Z,94647.25
2019-04-20T11:24:54.205Z,94643.86
2019-04-20T11:27:28.082Z,94636.97
2019-04-20T11:30:02.410Z,94640.36
2019-04-20T11:32:36.061Z,94630.94
2019-04-20T11:35:20.514Z,94627.84
2019-04-20T11:37:44.897Z,94623.87
2019-04-20T11:40:19.137Z,94632.75
2019-04-20T11:42:53.425Z,94621.58
2019-04-20T11:45:28.732Z,94632.07
2019-04-20T11:48:03.205Z,94621.06
2019-04-20T11:50:37.766Z,94618.84
2019-04-20T11:53:11.350Z,94624.39
2019-04-20T11:55:44.563Z,94621.00
2019-04-20T11:58:17.845Z,94622.61
2019-04-20T12:01:01.274Z,94600.77
2019-04-20T12:03:33.265Z,94607.37
2019-04-20T12:06:04.963Z,94606.35
2019-04-20T12:08:40.189Z,94607.61
2019-04-20T12:11:24.230Z,94605.39
2019-04-20T12:13:46.753Z,94604.48
2019-04-20T12:16:21.268Z,94593.35
2019-04-20T12:18:54.697Z,94594.87
2019-04-20T12:21:28.676Z,94592.17
2019-04-20T12:24:02.455Z,94586.88
2019-04-20T12:26:36.539Z,94580.16
2019-04-20T12:29:10.053Z,94583.69
2019-04-20T12:31:51.222Z,94581.29
2019-04-20T12:34:18.465Z,94579.55
2019-04-20T12:36:51.324Z,94570.84
2019-04-20T12:39:24.874Z,94568.56
2019-04-20T12:42:02.716Z,94570.62
2019-04-20T12:44:33.014Z,94565.12
2019-04-20T12:47:07.657Z,94565.62
2019-04-20T12:49:41.342Z,94566.58
2019-04-20T12:52:14.885Z,94562.98
2019-04-20T12:54:48.026Z,94563.52
2019-04-20T12:57:22.670Z,94550.55
2019-04-20T12:59:57.187Z,94543.67
2019-04-20T13:02:31.460Z,94549.50
2019-04-20T13:05:04.486Z,94543.53
2019-04-20T13:07:42.144Z,94547.47
2019-04-20T13:10:13.581Z,94545.16
2019-04-20T13:13:04.573Z,94542.39
2019-04-20T13:15:38.293Z,94538.03
2019-04-20T13:18:13.407Z,94535.29
2019-04-20T13:20:46.427Z,94533.33
2019-04-20T13:23:20.351Z,94533.91
2019-04-20T13:25:54.950Z,94528.78
2019-04-20T13:28:28.809Z,94532.82
2019-04-20T13:31:02.187Z,94521.09
2019-04-20T13:33:35.313Z,94526.16
2019-04-20T13:36:08.191Z,94515.30
2019-04-20T13:38:41.738Z,94517.51
2019-04-20T13:41:15.772Z,94515.96
2019-04-20T13:43:50.217Z,94505.85
2019-04-20T13:46:24.821Z,94505.06
2019-04-20T13:48:58.066Z,94505.86
2019-04-20T13:51:32.752Z,94493.98
2019-04-20T13:54:13.237Z,94495.13
2019-04-20T13:56:41.786Z,94494.34
2019-04-20T13:59:26.670Z,94491.54
2019-04-20T14:02:15.002Z,94490.56
2019-04-20T14:04:53.172Z,94491.05
2019-04-20T14:07:27.042Z,94483.80
2019-04-20T14:10:01.750Z,94475.36
2019-04-20T14:12:39.018Z,94475.52
2019-04-20T14:15:11.178Z,94473.84
2019-04-20T14:17:44.245Z,94469.43
2019-04-20T14:20:20.177Z,94469.28
2019-04-20T14:22:52.480Z,94465.91
2019-04-20T14:25:27.056Z,94463.66
2019-04-20T14:28:00.840Z,94467.17
2019-04-20T14:30:34.914Z,94462.47
2019-04-20T14:33:08.591Z,94451.75
2019-04-20T14:35:42.953Z,94449.77
2019-04-20T14:38:17.636Z,94452.87
2019-04-20T14:40:52.571Z,94448.07
2019-04-20T14:43:26.777Z,94447.52
2019-04-20T14:46:00.858Z,94443.81
2019-04-20T14:48:34.853Z,94438.84
2019-04-20T14:51:08.193Z,94439.19
2019-04-20T14:53:43.287Z,94436.69
2019-04-20T14:56:17.718Z,94445.89
2019-04-20T14:58:59.732Z,94440.30
2019-04-20T15:01:34.772Z,94443.94
2019-04-20T15:04:14.539Z,94437.02
2019-04-20T15:06:42.594Z,94442.52
2019-04-20T15:09:16.831Z,94436.25
2019-04-20T15:11:50.719Z,94436.37
2019-04-20T15:14:24.839Z,94428.63
2019-04-20T15:16:58.507Z,94433.78
2019-04-20T15:19:33.655Z,94423.19
2019-04-20T15:22:09.431Z,94427.19
2019-04-20T15:24:42.705Z,94429.12
2019-04-20T15:27:16.298Z,94424.58
2019-04-20T15:29:50.475Z,94425.16
2019-04-20T15:32:25.012Z,94423.02
2019-04-20T15:34:58.673Z,94421.73
2019-04-20T15:37:32.980Z,94415.19
2019-04-20T15:40:06.465Z,94413.31
2019-04-20T15:42:51.495Z,94416.47
2019-04-20T15:45:15.681Z,94409.31
2019-04-20T15:47:50.101Z,94409.20
2019-04-20T15:50:23.968Z,94407.57
2019-04-20T15:52:58.759Z,94402.98
2019-04-20T15:55:37.395Z,94400.14
2019-04-20T15:58:06.733Z,94405.34
2019-04-20T16:00:40.592Z,94401.57
2019-04-20T16:03:19.144Z,94403.75
2019-04-20T16:05:53.726Z,94391.98
2019-04-20T16:08:26.406Z,94397.94
2019-04-20T16:10:59.435Z,94385.48
2019-04-20T16:13:38.082Z,94381.89
2019-04-20T16:16:07.911Z,94381.81
2019-04-20T16:18:43.078Z,94386.84
2019-04-20T16:21:21.894Z,94377.80
2019-04-20T16:23:55.168Z,94376.48
2019-04-20T16:26:35.567Z,94376.28
2019-04-20T16:29:08.845Z,94375.44
2019-04-20T16:31:44.088Z,94372.30
2019-04-20T16:34:16.733Z,94366.25
2019-04-20T16:36:52.993Z,94368.02
2019-04-20T16:39:25.408Z,94360.83
2019-04-20T16:41:58.373Z,94356.71
2019-04-20T16:44:31.447Z,94357.16
2019-04-20T16:47:05.908Z,94359.58
2019-04-20T16:49:41.202Z,94361.08
2019-04-20T16:52:14.900Z,94358.02
2019-04-20T16:54:48.029Z,94354.77
2019-04-20T16:57:21.497Z,94350.24
2019-04-20T16:59:57.778Z,94350.64
2019-04-20T17:02:29.943Z,94347.12
2019-04-20T17:05:03.201Z,94347.22
2019-04-20T17:07:44.873Z,94345.39
2019-04-20T17:10:18.326Z,94341.09
2019-04-20T17:12:51.464Z,94348.29
2019-04-20T17:15:25.533Z,94338.75
2019-04-20T17:17:59.019Z,94346.34
2019-04-20T17:20:32.711Z,94343.39
2019-04-20T17:23:08.699Z,94336.82
2019-04-20T17:25:41.901Z,94337.67
2019-04-20T17:28:33.146Z,94338.99
2019-04-20T17:31:09.133Z,94343.58
2019-04-20T17:33:55.335Z,94339.19
2019-04-20T17:36:25.264Z,94345.59
2019-04-20T17:38:57.717Z,94346.22
2019-04-20T17:41:52.951Z,94341.90
2019-04-20T17:44:19.861Z,94339.50
2019-04-20T17:46:47.656Z,94337.83
2019-04-20T17:49:26.946Z,94341.39
2019-04-20T17:52:12.201Z,94342.62
2019-04-20T17:54:23.272Z,94345.66
2019-04-20T17:56:56.266Z,94353.81
2019-04-20T17:59:30.397Z,94354.91
2019-04-20T18:02:19.060Z,94353.30
2019-04-20T18:05:14.220Z,94354.58
2019-04-20T18:07:48.154Z,94350.11
2019-04-20T18:10:19.986Z,94355.27
2019-04-20T18:12:42.277Z,94361.44
2019-04-20T18:15:29.444Z,94359.08
2019-04-20T18:18:13.459Z,94357.75
2019-04-20T18:20:44.944Z,94362.56
2019-04-20T18:23:25.530Z,94367.36
2019-04-20T18:26:15.900Z,94365.75
2019-04-20T18:28:54.424Z,94366.04
2019-04-20T18:31:11.202Z,94370.03
2019-04-20T18:33:44.847Z,94377.21
2019-04-20T18:36:23.686Z,94378.02
2019-04-20T18:38:58.620Z,94378.02
2019-04-20T18:41:38.409Z,94375.87
2019-04-20T18:44:04.489Z,94379.05
2019-04-20T18:47:00.698Z,94381.98
2019-04-20T18:49:28.218Z,94387.08
2019-04-20T18:51:48.112Z,94389.73
2019-04-20T18:54:25.763Z,94389.48
2019-04-20T18:56:58.413Z,94389.92
2019-04-20T18:59:40.076Z,94398.14
2019-04-20T19:02:13.805Z,94394.67
2019-04-20T19:04:43.858Z,94393.41
2019-04-20T19:07:17.538Z,94394.47
2019-04-20T19:09:55.210Z,94396.36
2019-04-20T19:12:34.486Z,94393.68
2019-04-20T19:15:28.186Z,94393.34
2019-04-20T19:17:59.004Z,94393.60
2019-04-20T19:20:28.738Z,94401.32
2019-04-20T19:23:00.385Z,94390.05
2019-04-20T19:25:37.447Z,94394.98
2019-04-20T19:28:08.832Z,94383.23
2019-04-20T19:30:49.958Z,94385.84
2019-04-20T19:33:30.984Z,94386.64
2019-04-20T19:36:09.299Z,94386.19
2019-04-20T19:38:41.825Z,94379.80
2019-04-20T19:41:21.405Z,94386.92
2019-04-20T19:43:49.969Z,94386.91
2019-04-20T19:48:55.916Z,94389.90
2019-04-20T19:51:43.074Z,94390.53
2019-04-20T19:54:17.932Z,94390.97
2019-04-20T19:56:46.707Z,94387.33
2019-04-20T19:59:17.461Z,94391.70
2019-04-20T20:01:40.185Z,94384.94
2019-04-20T20:04:13.723Z,94387.52
2019-04-20T20:06:51.887Z,94388.91
2019-04-20T20:09:21.937Z,94387.94
2019-04-20T20:11:57.256Z,94388.55
2019-04-20T20:14:36.500Z,94388.84
2019-04-20T20:17:26.921Z,94386.26
2019-04-20T20:20:06.974Z,94391.31
2019-04-20T20:22:26.732Z,94391.21
2019-04-20T20:24:49.362Z,94396.06
2019-04-20T20:27:31.407Z,94396.55
2019-04-20T20:30:07.017Z,94401.08
2019-04-20T20:32:49.282Z,94399.14
2019-04-20T20:35:15.395Z,94396.25
2019-04-20T20:37:47.976Z,94394.25
2019-04-20T20:40:23.306Z,94393.14
2019-04-20T20:43:06.147Z,94397.34
2019-04-20T20:45:36.127Z,94394.27
2019-04-20T20:48:15.856Z,94389.72
2019-04-20T20:50:53.275Z,94391.79
2019-04-20T20:53:16.329Z,94390.53
2019-04-20T20:55:47.971Z,94383.13
2019-04-20T20:58:32.545Z,94385.52
2019-04-20T21:00:57.571Z,94384.56
2019-04-20T21:03:34.630Z,94387.12
2019-04-20T21:06:03.317Z,94381.70
2019-04-20T21:08:42.845Z,94385.23
2019-04-20T21:11:19.792Z,94381.67
2019-04-20T21:13:48.743Z,94383.41
2019-04-20T21:16:27.652Z,94386.64
2019-04-20T21:19:15.858Z,94382.78
2019-04-20T21:21:42.531Z,94385.49
2019-04-20T21:24:14.532Z,94385.57
2019-04-20T21:26:45.926Z,94381.42
2019-04-20T21:29:20.488Z,94385.05
2019-04-20T21:32:01.831Z,94386.20
2019-04-20T21:34:29.121Z,94386.64
2019-04-20T21:37:11.621Z,94382.50
2019-04-20T21:39:44.056Z,94379.20
2019-04-20T21:42:16.110Z,94376.08
2019-04-20T21:44:50.074Z,94379.24
2019-04-20T21:47:27.309Z,94377.22
2019-04-20T21:50:15.364Z,94376.59
2019-04-20T21:52:38.757Z,94375.89
2019-04-20T21:55:05.873Z,94377.22
2019-04-20T21:57:44.708Z,94379.30
2019-04-20T22:00:25.174Z,94375.56
2019-04-20T22:02:56.257Z,94368.27
2019-04-20T22:05:25.289Z,94370.29
2019-04-20T22:08:03.324Z,94369.53
2019-04-20T22:10:34.339Z,94376.67
2019-04-20T22:13:09.936Z,94374.59
2019-04-20T22:15:51.830Z,94375.96
2019-04-20T22:18:21.512Z,94376.89
2019-04-20T22:21:04.634Z,94375.22
2019-04-20T22:23:43.279Z,94375.87
2019-04-20T22:26:14.230Z,94376.19
2019-04-20T22:28:38.157Z,94379.24
2019-04-20T22:31:12.030Z,94375.67
2019-04-20T22:33:47.297Z,94372.89
2019-04-20T22:36:24.045Z,94371.22
2019-04-20T22:39:09.673Z,94364.64
2019-04-20T22:41:52.427Z,94361.86
2019-04-20T22:44:22.442Z,94366.46
2019-04-20T22:46:54.337Z,94363.11
2019-04-20T22:49:44.089Z,94358.58
2019-04-20T22:52:18.114Z,94358.83
2019-04-20T22:54:54.310Z,94351.25
2019-04-20T22:57:30.265Z,94349.09
2019-04-20T22:59:58.322Z,94348.17
2019-04-20T23:02:24.507Z,94337.52
2019-04-20T23:04:57.169Z,94337.60
2019-04-20T23:07:30.728Z,94336.36
2019-04-20T23:10:05.422Z,94332.14
2019-04-20T23:12:40.050Z,94324.33
2019-04-20T23:15:14.414Z,94324.11
2019-04-20T23:17:50.438Z,94329.08
2019-04-20T23:20:27.663Z,94325.96
2019-04-20T23:22:56.921Z,94327.51
2019-04-20T23:25:31.274Z,94320.00
2019-04-20T23:28:10.119Z,94317.98
2019-04-20T23:30:41.985Z,94320.08
2019-04-20T23:33:14.018Z,94316.61
2019-04-20T23:35:54.168Z,94310.95
2019-04-20T23:38:24.579Z,94312.25
2019-04-20T23:40:55.974Z,94315.58
2019-04-20T23:43:35.866Z,94308.00
2019-04-20T23:46:19.605Z,94307.00
2019-04-20T23:49:13.538Z,94302.78
2019-04-20T23:52:05.699Z,94301.83
2019-04-20T23:54:22.119Z,94294.70
2019-04-20T23:56:50.083Z,94291.34
2019-04-20T23:59:30.408Z,94289.11
